sensor_id;sensor_type;location;lat;lon;timestamp;P1;durP1;ratioP1;P2;durP2;ratioP2
19623;SDS011;9959;49.798;9.928;2023-09-12T00:02:15;20.73;;;9.05;;
19623;SDS011;9959;49.798;9.928;2023-09-12T00:04:42;17.85;;;8.05;;
19623;SDS011;9959;49.798;9.928;2023-09-12T00:07:09;19.98;;;8.32;;
19623;SDS011;9959;49.798;9.928;2023-09-12T00:09:36;20.30;;;8.88;;
19623;SDS011;9959;49.798;9.928;2023-09-12T00:12:03;25.45;;;9.70;;
19623;SDS011;9959;49.798;9.928;2023-09-12T00:14:31;19.90;;;8.88;;
19623;SDS011;9959;49.798;9.928;2023-09-12T00:16:58;23.42;;;9.38;;
19623;SDS011;9959;49.798;9.928;2023-09-12T00:19:25;21.35;;;9.13;;
19623;SDS011;9959;49.798;9.928;2023-09-12T00:21:52;23.60;;;9.98;;
19623;SDS011;9959;49.798;9.928;2023-09-12T00:24:20;20.60;;;9.57;;
19623;SDS011;9959;49.798;9.928;2023-09-12T00:26:47;19.08;;;10.00;;
19623;SDS011;9959;49.798;9.928;2023-09-12T00:29:14;20.15;;;10.38;;
19623;SDS011;9959;49.798;9.928;2023-09-12T00:31:41;24.38;;;9.90;;
19623;SDS011;9959;49.798;9.928;2023-09-12T00:34:08;21.95;;;10.07;;
19623;SDS011;9959;49.798;9.928;2023-09-12T00:36:35;21.52;;;9.77;;
19623;SDS011;9959;49.798;9.928;2023-09-12T00:39:04;21.92;;;10.40;;
19623;SDS011;9959;49.798;9.928;2023-09-12T00:41:31;19.10;;;10.15;;
19623;SDS011;9959;49.798;9.928;2023-09-12T00:43:58;23.40;;;10.70;;
19623;SDS011;9959;49.798;9.928;2023-09-12T00:46:28;32.42;;;10.18;;
19623;SDS011;9959;49.798;9.928;2023-09-12T00:48:56;27.45;;;9.63;;
19623;SDS011;9959;49.798;9.928;2023-09-12T00:51:26;18.13;;;9.73;;
19623;SDS011;9959;49.798;9.928;2023-09-12T00:53:55;26.08;;;10.50;;
19623;SDS011;9959;49.798;9.928;2023-09-12T00:56:22;21.15;;;9.38;;
19623;SDS011;9959;49.798;9.928;2023-09-12T00:58:49;21.90;;;10.40;;
19623;SDS011;9959;49.798;9.928;2023-09-12T01:01:18;17.90;;;10.20;;
19623;SDS011;9959;49.798;9.928;2023-09-12T01:03:47;19.50;;;8.75;;
19623;SDS011;9959;49.798;9.928;2023-09-12T01:06:15;20.02;;;9.32;;
19623;SDS011;9959;49.798;9.928;2023-09-12T01:08:46;20.17;;;9.38;;
19623;SDS011;9959;49.798;9.928;2023-09-12T01:11:13;18.15;;;9.40;;
19623;SDS011;9959;49.798;9.928;2023-09-12T01:13:40;20.23;;;9.60;;
19623;SDS011;9959;49.798;9.928;2023-09-12T01:16:07;21.45;;;10.25;;
19623;SDS011;9959;49.798;9.928;2023-09-12T01:18:35;21.55;;;10.25;;
19623;SDS011;9959;49.798;9.928;2023-09-12T01:26:23;21.48;;;10.95;;
19623;SDS011;9959;49.798;9.928;2023-09-12T01:29:11;23.17;;;11.07;;
19623;SDS011;9959;49.798;9.928;2023-09-12T01:31:40;20.77;;;11.38;;
19623;SDS011;9959;49.798;9.928;2023-09-12T01:34:09;24.15;;;10.57;;
19623;SDS011;9959;49.798;9.928;2023-09-12T01:36:37;24.83;;;11.02;;
19623;SDS011;9959;49.798;9.928;2023-09-12T01:39:04;27.80;;;10.73;;
19623;SDS011;9959;49.798;9.928;2023-09-12T01:41:32;22.77;;;10.77;;
19623;SDS011;9959;49.798;9.928;2023-09-12T01:44:02;24.20;;;10.73;;
19623;SDS011;9959;49.798;9.928;2023-09-12T01:46:30;24.90;;;10.05;;
19623;SDS011;9959;49.798;9.928;2023-09-12T01:49:00;20.15;;;10.35;;
19623;SDS011;9959;49.798;9.928;2023-09-12T01:51:28;26.92;;;10.40;;
19623;SDS011;9959;49.798;9.928;2023-09-12T01:53:56;23.52;;;11.48;;
19623;SDS011;9959;49.798;9.928;2023-09-12T01:56:25;27.23;;;9.95;;
19623;SDS011;9959;49.798;9.928;2023-09-12T01:58:52;25.95;;;11.05;;
19623;SDS011;9959;49.798;9.928;2023-09-12T02:01:20;22.23;;;10.43;;
19623;SDS011;9959;49.798;9.928;2023-09-12T02:03:47;24.25;;;10.85;;
19623;SDS011;9959;49.798;9.928;2023-09-12T02:06:14;21.40;;;10.35;;
19623;SDS011;9959;49.798;9.928;2023-09-12T02:08:41;24.77;;;10.77;;
19623;SDS011;9959;49.798;9.928;2023-09-12T02:11:09;23.95;;;10.25;;
19623;SDS011;9959;49.798;9.928;2023-09-12T02:13:35;18.85;;;10.32;;
19623;SDS011;9959;49.798;9.928;2023-09-12T02:16:02;22.70;;;10.10;;
19623;SDS011;9959;49.798;9.928;2023-09-12T02:18:30;23.48;;;10.82;;
19623;SDS011;9959;49.798;9.928;2023-09-12T02:21:00;23.60;;;11.75;;
19623;SDS011;9959;49.798;9.928;2023-09-12T02:23:27;16.42;;;10.73;;
19623;SDS011;9959;49.798;9.928;2023-09-12T02:36:41;22.27;;;11.77;;
19623;SDS011;9959;49.798;9.928;2023-09-12T02:39:08;25.17;;;10.63;;
19623;SDS011;9959;49.798;9.928;2023-09-12T02:41:35;21.25;;;11.55;;
19623;SDS011;9959;49.798;9.928;2023-09-12T02:44:02;23.08;;;11.63;;
19623;SDS011;9959;49.798;9.928;2023-09-12T02:46:38;21.95;;;12.07;;
19623;SDS011;9959;49.798;9.928;2023-09-12T02:49:08;26.27;;;11.50;;
19623;SDS011;9959;49.798;9.928;2023-09-12T02:51:38;27.15;;;11.23;;
19623;SDS011;9959;49.798;9.928;2023-09-12T02:54:05;28.08;;;12.82;;
19623;SDS011;9959;49.798;9.928;2023-09-12T02:56:32;23.75;;;13.10;;
19623;SDS011;9959;49.798;9.928;2023-09-12T02:58:59;24.00;;;12.88;;
19623;SDS011;9959;49.798;9.928;2023-09-12T03:01:27;24.90;;;12.90;;
19623;SDS011;9959;49.798;9.928;2023-09-12T03:03:54;21.63;;;11.52;;
19623;SDS011;9959;49.798;9.928;2023-09-12T03:06:22;25.67;;;12.63;;
19623;SDS011;9959;49.798;9.928;2023-09-12T03:08:49;24.45;;;12.35;;
19623;SDS011;9959;49.798;9.928;2023-09-12T03:11:16;29.77;;;13.00;;
19623;SDS011;9959;49.798;9.928;2023-09-12T03:13:43;27.35;;;12.93;;
19623;SDS011;9959;49.798;9.928;2023-09-12T03:16:10;24.23;;;12.38;;
19623;SDS011;9959;49.798;9.928;2023-09-12T03:18:38;25.90;;;11.52;;
19623;SDS011;9959;49.798;9.928;2023-09-12T03:21:06;25.08;;;12.57;;
19623;SDS011;9959;49.798;9.928;2023-09-12T03:23:33;23.25;;;12.35;;
19623;SDS011;9959;49.798;9.928;2023-09-12T03:26:04;26.92;;;12.43;;
19623;SDS011;9959;49.798;9.928;2023-09-12T03:28:32;24.45;;;13.07;;
19623;SDS011;9959;49.798;9.928;2023-09-12T03:31:09;27.40;;;11.25;;
19623;SDS011;9959;49.798;9.928;2023-09-12T03:33:40;24.30;;;11.27;;
19623;SDS011;9959;49.798;9.928;2023-09-12T03:36:08;21.70;;;11.43;;
19623;SDS011;9959;49.798;9.928;2023-09-12T03:38:36;20.40;;;11.40;;
19623;SDS011;9959;49.798;9.928;2023-09-12T03:41:03;23.13;;;11.13;;
19623;SDS011;9959;49.798;9.928;2023-09-12T03:43:30;24.52;;;11.60;;
19623;SDS011;9959;49.798;9.928;2023-09-12T03:45:57;22.00;;;12.20;;
19623;SDS011;9959;49.798;9.928;2023-09-12T03:48:25;22.60;;;12.80;;
19623;SDS011;9959;49.798;9.928;2023-09-12T03:50:52;20.55;;;11.38;;
19623;SDS011;9959;49.798;9.928;2023-09-12T03:53:19;24.48;;;11.55;;
19623;SDS011;9959;49.798;9.928;2023-09-12T03:55:46;19.95;;;11.05;;
19623;SDS011;9959;49.798;9.928;2023-09-12T03:58:13;25.42;;;11.63;;
19623;SDS011;9959;49.798;9.928;2023-09-12T04:00:40;22.77;;;10.90;;
19623;SDS011;9959;49.798;9.928;2023-09-12T04:03:07;22.70;;;11.40;;
19623;SDS011;9959;49.798;9.928;2023-09-12T04:05:34;24.02;;;10.43;;
19623;SDS011;9959;49.798;9.928;2023-09-12T04:08:01;25.05;;;11.63;;
19623;SDS011;9959;49.798;9.928;2023-09-12T04:10:28;20.63;;;10.95;;
19623;SDS011;9959;49.798;9.928;2023-09-12T04:12:55;18.90;;;10.57;;
19623;SDS011;9959;49.798;9.928;2023-09-12T04:15:23;23.83;;;12.45;;
19623;SDS011;9959;49.798;9.928;2023-09-12T04:17:51;23.90;;;11.52;;
19623;SDS011;9959;49.798;9.928;2023-09-12T04:20:18;21.30;;;10.82;;
19623;SDS011;9959;49.798;9.928;2023-09-12T04:22:45;27.48;;;10.52;;
19623;SDS011;9959;49.798;9.928;2023-09-12T04:25:12;22.83;;;11.68;;
19623;SDS011;9959;49.798;9.928;2023-09-12T04:27:39;20.65;;;10.38;;
19623;SDS011;9959;49.798;9.928;2023-09-12T04:30:08;21.35;;;9.57;;
19623;SDS011;9959;49.798;9.928;2023-09-12T04:32:35;19.42;;;10.05;;
19623;SDS011;9959;49.798;9.928;2023-09-12T04:35:03;19.08;;;10.35;;
19623;SDS011;9959;49.798;9.928;2023-09-12T04:37:30;37.20;;;11.13;;
19623;SDS011;9959;49.798;9.928;2023-09-12T04:39:57;18.40;;;10.15;;
19623;SDS011;9959;49.798;9.928;2023-09-12T04:42:24;19.85;;;10.30;;
19623;SDS011;9959;49.798;9.928;2023-09-12T04:44:51;22.85;;;10.13;;
19623;SDS011;9959;49.798;9.928;2023-09-12T04:47:19;23.90;;;10.15;;
19623;SDS011;9959;49.798;9.928;2023-09-12T04:49:46;23.35;;;10.02;;
19623;SDS011;9959;49.798;9.928;2023-09-12T04:52:13;21.10;;;10.18;;
19623;SDS011;9959;49.798;9.928;2023-09-12T04:54:40;24.23;;;11.20;;
19623;SDS011;9959;49.798;9.928;2023-09-12T04:57:07;22.35;;;9.70;;
19623;SDS011;9959;49.798;9.928;2023-09-12T04:59:35;21.83;;;10.18;;
19623;SDS011;9959;49.798;9.928;2023-09-12T05:02:02;24.48;;;10.90;;
19623;SDS011;9959;49.798;9.928;2023-09-12T05:04:37;21.23;;;10.43;;
19623;SDS011;9959;49.798;9.928;2023-09-12T05:07:04;24.33;;;10.95;;
19623;SDS011;9959;49.798;9.928;2023-09-12T05:09:31;22.05;;;10.80;;
19623;SDS011;9959;49.798;9.928;2023-09-12T05:11:58;36.53;;;11.93;;
19623;SDS011;9959;49.798;9.928;2023-09-12T05:14:25;27.73;;;10.98;;
19623;SDS011;9959;49.798;9.928;2023-09-12T05:16:52;24.58;;;10.73;;
19623;SDS011;9959;49.798;9.928;2023-09-12T05:19:19;19.92;;;10.73;;
19623;SDS011;9959;49.798;9.928;2023-09-12T05:21:46;26.70;;;10.65;;
19623;SDS011;9959;49.798;9.928;2023-09-12T05:24:13;26.48;;;10.13;;
19623;SDS011;9959;49.798;9.928;2023-09-12T05:26:41;18.35;;;10.15;;
19623;SDS011;9959;49.798;9.928;2023-09-12T05:29:12;24.60;;;11.65;;
19623;SDS011;9959;49.798;9.928;2023-09-12T05:31:43;21.10;;;10.40;;
19623;SDS011;9959;49.798;9.928;2023-09-12T05:34:10;23.42;;;10.10;;
19623;SDS011;9959;49.798;9.928;2023-09-12T05:36:37;23.25;;;10.18;;
19623;SDS011;9959;49.798;9.928;2023-09-12T05:39:04;23.38;;;10.20;;
19623;SDS011;9959;49.798;9.928;2023-09-12T05:41:31;22.80;;;11.13;;
19623;SDS011;9959;49.798;9.928;2023-09-12T05:43:58;16.83;;;10.43;;
19623;SDS011;9959;49.798;9.928;2023-09-12T05:46:25;24.42;;;10.70;;
19623;SDS011;9959;49.798;9.928;2023-09-12T05:48:52;25.25;;;10.95;;
19623;SDS011;9959;49.798;9.928;2023-09-12T05:51:19;27.25;;;11.38;;
19623;SDS011;9959;49.798;9.928;2023-09-12T05:53:46;20.27;;;11.18;;
19623;SDS011;9959;49.798;9.928;2023-09-12T05:56:13;25.27;;;11.82;;
19623;SDS011;9959;49.798;9.928;2023-09-12T05:58:40;25.73;;;10.90;;
19623;SDS011;9959;49.798;9.928;2023-09-12T06:01:09;28.33;;;10.73;;
19623;SDS011;9959;49.798;9.928;2023-09-12T06:03:36;22.08;;;11.23;;
19623;SDS011;9959;49.798;9.928;2023-09-12T06:06:03;23.48;;;11.63;;
19623;SDS011;9959;49.798;9.928;2023-09-12T06:08:30;23.27;;;11.27;;
19623;SDS011;9959;49.798;9.928;2023-09-12T06:10:57;31.98;;;11.32;;
19623;SDS011;9959;49.798;9.928;2023-09-12T06:13:24;33.72;;;11.57;;
19623;SDS011;9959;49.798;9.928;2023-09-12T06:15:51;21.38;;;11.38;;
19623;SDS011;9959;49.798;9.928;2023-09-12T06:18:19;33.92;;;11.23;;
19623;SDS011;9959;49.798;9.928;2023-09-12T06:20:46;30.88;;;12.55;;
19623;SDS011;9959;49.798;9.928;2023-09-12T06:23:13;24.77;;;10.73;;
19623;SDS011;9959;49.798;9.928;2023-09-12T06:25:40;31.30;;;11.88;;
19623;SDS011;9959;49.798;9.928;2023-09-12T06:28:08;26.42;;;12.90;;
19623;SDS011;9959;49.798;9.928;2023-09-12T06:30:36;30.50;;;12.30;;
19623;SDS011;9959;49.798;9.928;2023-09-12T06:33:03;33.55;;;11.90;;
19623;SDS011;9959;49.798;9.928;2023-09-12T06:35:31;29.00;;;12.70;;
19623;SDS011;9959;49.798;9.928;2023-09-12T06:37:58;25.77;;;12.35;;
19623;SDS011;9959;49.798;9.928;2023-09-12T06:40:25;30.40;;;12.02;;
19623;SDS011;9959;49.798;9.928;2023-09-12T06:42:52;27.23;;;11.65;;
19623;SDS011;9959;49.798;9.928;2023-09-12T06:45:19;25.30;;;11.82;;
19623;SDS011;9959;49.798;9.928;2023-09-12T06:47:46;30.05;;;11.75;;
19623;SDS011;9959;49.798;9.928;2023-09-12T06:50:13;27.27;;;11.90;;
19623;SDS011;9959;49.798;9.928;2023-09-12T06:52:41;34.33;;;14.15;;
19623;SDS011;9959;49.798;9.928;2023-09-12T06:55:08;44.58;;;17.65;;
19623;SDS011;9959;49.798;9.928;2023-09-12T06:57:35;47.53;;;21.25;;
19623;SDS011;9959;49.798;9.928;2023-09-12T07:00:02;66.78;;;26.13;;
19623;SDS011;9959;49.798;9.928;2023-09-12T07:02:33;74.32;;;31.38;;
19623;SDS011;9959;49.798;9.928;2023-09-12T07:05:00;82.43;;;34.00;;
19623;SDS011;9959;49.798;9.928;2023-09-12T07:07:27;70.28;;;30.52;;
19623;SDS011;9959;49.798;9.928;2023-09-12T07:09:54;65.43;;;28.83;;
19623;SDS011;9959;49.798;9.928;2023-09-12T07:12:41;90.15;;;38.30;;
19623;SDS011;9959;49.798;9.928;2023-09-12T07:15:08;83.43;;;39.33;;
19623;SDS011;9959;49.798;9.928;2023-09-12T07:17:36;74.45;;;34.80;;
19623;SDS011;9959;49.798;9.928;2023-09-12T07:20:03;62.80;;;31.67;;
19623;SDS011;9959;49.798;9.928;2023-09-12T07:22:31;65.35;;;28.70;;
19623;SDS011;9959;49.798;9.928;2023-09-12T07:24:59;53.20;;;24.92;;
19623;SDS011;9959;49.798;9.928;2023-09-12T07:27:27;49.75;;;23.40;;
19623;SDS011;9959;49.798;9.928;2023-09-12T07:29:55;49.03;;;23.45;;
19623;SDS011;9959;49.798;9.928;2023-09-12T07:32:22;53.50;;;24.30;;
19623;SDS011;9959;49.798;9.928;2023-09-12T07:34:49;44.28;;;22.65;;
19623;SDS011;9959;49.798;9.928;2023-09-12T07:37:16;50.38;;;22.45;;
19623;SDS011;9959;49.798;9.928;2023-09-12T07:39:43;43.00;;;21.75;;
19623;SDS011;9959;49.798;9.928;2023-09-12T07:42:10;40.55;;;20.27;;
19623;SDS011;9959;49.798;9.928;2023-09-12T07:44:37;40.97;;;17.92;;
19623;SDS011;9959;49.798;9.928;2023-09-12T07:47:04;32.30;;;16.52;;
19623;SDS011;9959;49.798;9.928;2023-09-12T07:49:31;37.28;;;16.63;;
19623;SDS011;9959;49.798;9.928;2023-09-12T07:51:59;38.47;;;19.63;;
19623;SDS011;9959;49.798;9.928;2023-09-12T07:54:25;42.50;;;18.20;;
19623;SDS011;9959;49.798;9.928;2023-09-12T07:56:52;29.08;;;16.35;;
19623;SDS011;9959;49.798;9.928;2023-09-12T07:59:19;33.47;;;15.95;;
19623;SDS011;9959;49.798;9.928;2023-09-12T08:01:46;40.95;;;16.10;;
19623;SDS011;9959;49.798;9.928;2023-09-12T08:04:13;29.25;;;16.02;;
19623;SDS011;9959;49.798;9.928;2023-09-12T08:06:41;35.67;;;15.23;;
19623;SDS011;9959;49.798;9.928;2023-09-12T08:09:22;30.33;;;15.32;;
19623;SDS011;9959;49.798;9.928;2023-09-12T08:11:49;31.10;;;15.60;;
19623;SDS011;9959;49.798;9.928;2023-09-12T08:14:16;28.58;;;14.55;;
19623;SDS011;9959;49.798;9.928;2023-09-12T08:16:43;35.15;;;14.50;;
19623;SDS011;9959;49.798;9.928;2023-09-12T08:19:10;28.52;;;14.20;;
19623;SDS011;9959;49.798;9.928;2023-09-12T08:21:41;28.55;;;13.65;;
19623;SDS011;9959;49.798;9.928;2023-09-12T08:24:08;27.10;;;15.07;;
19623;SDS011;9959;49.798;9.928;2023-09-12T08:26:35;29.05;;;15.60;;
19623;SDS011;9959;49.798;9.928;2023-09-12T08:29:02;33.92;;;14.98;;
19623;SDS011;9959;49.798;9.928;2023-09-12T08:31:29;32.22;;;14.85;;
19623;SDS011;9959;49.798;9.928;2023-09-12T08:33:56;30.38;;;14.88;;
19623;SDS011;9959;49.798;9.928;2023-09-12T08:36:23;32.35;;;14.38;;
19623;SDS011;9959;49.798;9.928;2023-09-12T08:38:50;25.90;;;13.93;;
19623;SDS011;9959;49.798;9.928;2023-09-12T08:41:17;31.45;;;14.10;;
19623;SDS011;9959;49.798;9.928;2023-09-12T08:43:44;30.20;;;13.75;;
19623;SDS011;9959;49.798;9.928;2023-09-12T08:46:12;29.27;;;12.98;;
19623;SDS011;9959;49.798;9.928;2023-09-12T08:48:39;30.17;;;13.90;;
19623;SDS011;9959;49.798;9.928;2023-09-12T08:51:07;24.70;;;13.15;;
19623;SDS011;9959;49.798;9.928;2023-09-12T08:53:36;24.55;;;12.15;;
19623;SDS011;9959;49.798;9.928;2023-09-12T08:56:04;19.88;;;13.02;;
19623;SDS011;9959;49.798;9.928;2023-09-12T08:58:32;31.67;;;10.57;;
19623;SDS011;9959;49.798;9.928;2023-09-12T09:00:59;22.92;;;11.25;;
19623;SDS011;9959;49.798;9.928;2023-09-12T09:03:27;28.15;;;10.25;;
19623;SDS011;9959;49.798;9.928;2023-09-12T09:05:55;21.17;;;10.35;;
19623;SDS011;9959;49.798;9.928;2023-09-12T09:08:22;21.77;;;10.60;;
19623;SDS011;9959;49.798;9.928;2023-09-12T09:10:56;23.50;;;11.15;;
19623;SDS011;9959;49.798;9.928;2023-09-12T09:13:25;23.90;;;9.80;;
19623;SDS011;9959;49.798;9.928;2023-09-12T09:16:11;14.93;;;9.80;;
19623;SDS011;9959;49.798;9.928;2023-09-12T09:18:55;27.58;;;9.75;;
19623;SDS011;9959;49.798;9.928;2023-09-12T09:21:25;20.73;;;9.68;;
19623;SDS011;9959;49.798;9.928;2023-09-12T09:23:54;18.50;;;9.43;;
19623;SDS011;9959;49.798;9.928;2023-09-12T09:26:21;17.52;;;9.70;;
19623;SDS011;9959;49.798;9.928;2023-09-12T09:29:05;22.65;;;9.82;;
19623;SDS011;9959;49.798;9.928;2023-09-12T09:31:33;20.65;;;10.75;;
19623;SDS011;9959;49.798;9.928;2023-09-12T09:34:00;18.77;;;9.15;;
19623;SDS011;9959;49.798;9.928;2023-09-12T09:36:30;20.17;;;9.38;;
19623;SDS011;9959;49.798;9.928;2023-09-12T09:38:58;17.08;;;9.20;;
19623;SDS011;9959;49.798;9.928;2023-09-12T09:41:26;19.88;;;9.50;;
19623;SDS011;9959;49.798;9.928;2023-09-12T09:43:53;19.80;;;10.25;;
19623;SDS011;9959;49.798;9.928;2023-09-12T09:46:20;27.48;;;9.93;;
19623;SDS011;9959;49.798;9.928;2023-09-12T09:48:50;18.20;;;9.93;;
19623;SDS011;9959;49.798;9.928;2023-09-12T09:51:18;19.83;;;9.45;;
19623;SDS011;9959;49.798;9.928;2023-09-12T09:53:45;23.15;;;9.50;;
19623;SDS011;9959;49.798;9.928;2023-09-12T09:56:17;21.45;;;9.38;;
19623;SDS011;9959;49.798;9.928;2023-09-12T09:58:51;19.40;;;8.60;;
19623;SDS011;9959;49.798;9.928;2023-09-12T10:01:20;14.18;;;8.65;;
19623;SDS011;9959;49.798;9.928;2023-09-12T10:03:50;14.68;;;10.40;;
19623;SDS011;9959;49.798;9.928;2023-09-12T10:06:19;17.75;;;9.20;;
19623;SDS011;9959;49.798;9.928;2023-09-12T10:08:50;20.45;;;9.07;;
19623;SDS011;9959;49.798;9.928;2023-09-12T10:11:19;16.42;;;8.80;;
19623;SDS011;9959;49.798;9.928;2023-09-12T10:13:49;16.30;;;8.63;;
19623;SDS011;9959;49.798;9.928;2023-09-12T10:16:20;23.02;;;9.68;;
19623;SDS011;9959;49.798;9.928;2023-09-12T10:19:37;21.55;;;9.13;;
19623;SDS011;9959;49.798;9.928;2023-09-12T10:22:05;23.52;;;9.10;;
19623;SDS011;9959;49.798;9.928;2023-09-12T10:24:36;23.20;;;9.80;;
19623;SDS011;9959;49.798;9.928;2023-09-12T10:27:05;25.20;;;9.23;;
19623;SDS011;9959;49.798;9.928;2023-09-12T10:29:32;17.33;;;9.60;;
19623;SDS011;9959;49.798;9.928;2023-09-12T10:32:01;21.08;;;8.98;;
19623;SDS011;9959;49.798;9.928;2023-09-12T10:34:30;20.50;;;9.10;;
19623;SDS011;9959;49.798;9.928;2023-09-12T10:36:58;20.15;;;8.40;;
19623;SDS011;9959;49.798;9.928;2023-09-12T10:39:32;18.58;;;8.90;;
19623;SDS011;9959;49.798;9.928;2023-09-12T10:41:59;16.02;;;8.70;;
19623;SDS011;9959;49.798;9.928;2023-09-12T10:44:30;17.80;;;9.13;;
19623;SDS011;9959;49.798;9.928;2023-09-12T10:46:58;16.13;;;8.32;;
19623;SDS011;9959;49.798;9.928;2023-09-12T10:49:26;14.77;;;8.90;;
19623;SDS011;9959;49.798;9.928;2023-09-12T10:51:54;13.13;;;8.32;;
19623;SDS011;9959;49.798;9.928;2023-09-12T10:54:25;14.93;;;8.55;;
19623;SDS011;9959;49.798;9.928;2023-09-12T10:57:05;14.75;;;8.90;;
19623;SDS011;9959;49.798;9.928;2023-09-12T10:59:34;14.45;;;8.80;;
19623;SDS011;9959;49.798;9.928;2023-09-12T11:04:53;18.38;;;8.02;;
19623;SDS011;9959;49.798;9.928;2023-09-12T11:07:30;19.98;;;8.68;;
19623;SDS011;9959;49.798;9.928;2023-09-12T11:12:44;20.95;;;8.32;;
19623;SDS011;9959;49.798;9.928;2023-09-12T11:15:13;17.45;;;7.82;;
19623;SDS011;9959;49.798;9.928;2023-09-12T11:17:42;14.93;;;9.35;;
19623;SDS011;9959;49.798;9.928;2023-09-12T11:20:13;15.80;;;8.25;;
19623;SDS011;9959;49.798;9.928;2023-09-12T11:22:42;19.35;;;8.73;;
19623;SDS011;9959;49.798;9.928;2023-09-12T11:25:26;39.88;;;10.05;;
19623;SDS011;9959;49.798;9.928;2023-09-12T11:30:20;16.98;;;8.05;;
19623;SDS011;9959;49.798;9.928;2023-09-12T11:32:53;21.02;;;8.80;;
19623;SDS011;9959;49.798;9.928;2023-09-12T11:35:24;31.30;;;9.35;;
19623;SDS011;9959;49.798;9.928;2023-09-12T11:37:54;32.80;;;9.60;;
19623;SDS011;9959;49.798;9.928;2023-09-12T11:40:40;28.40;;;9.35;;
19623;SDS011;9959;49.798;9.928;2023-09-12T11:43:17;24.52;;;8.65;;
19623;SDS011;9959;49.798;9.928;2023-09-12T11:45:46;21.52;;;8.50;;
19623;SDS011;9959;49.798;9.928;2023-09-12T11:48:14;14.20;;;8.85;;
19623;SDS011;9959;49.798;9.928;2023-09-12T11:50:41;16.63;;;8.68;;
19623;SDS011;9959;49.798;9.928;2023-09-12T11:53:08;19.02;;;8.52;;
19623;SDS011;9959;49.798;9.928;2023-09-12T11:58:09;117.93;;;13.70;;
19623;SDS011;9959;49.798;9.928;2023-09-12T12:00:46;27.42;;;8.75;;
19623;SDS011;9959;49.798;9.928;2023-09-12T12:03:16;18.92;;;8.30;;
19623;SDS011;9959;49.798;9.928;2023-09-12T12:05:44;16.30;;;7.68;;
19623;SDS011;9959;49.798;9.928;2023-09-12T12:08:12;13.27;;;7.88;;
19623;SDS011;9959;49.798;9.928;2023-09-12T12:10:56;28.45;;;8.75;;
19623;SDS011;9959;49.798;9.928;2023-09-12T12:13:25;48.63;;;9.25;;
19623;SDS011;9959;49.798;9.928;2023-09-12T12:15:55;46.80;;;9.30;;
19623;SDS011;9959;49.798;9.928;2023-09-12T12:18:23;17.30;;;8.68;;
19623;SDS011;9959;49.798;9.928;2023-09-12T12:20:51;22.80;;;8.50;;
19623;SDS011;9959;49.798;9.928;2023-09-12T12:23:18;21.35;;;7.85;;
19623;SDS011;9959;49.798;9.928;2023-09-12T12:25:45;12.27;;;8.13;;
19623;SDS011;9959;49.798;9.928;2023-09-12T12:28:12;17.15;;;8.75;;
19623;SDS011;9959;49.798;9.928;2023-09-12T12:30:39;24.38;;;9.23;;
19623;SDS011;9959;49.798;9.928;2023-09-12T12:33:07;16.05;;;8.25;;
19623;SDS011;9959;49.798;9.928;2023-09-12T12:38:35;96.43;;;12.10;;
19623;SDS011;9959;49.798;9.928;2023-09-12T12:41:24;204.10;;;20.58;;
19623;SDS011;9959;49.798;9.928;2023-09-12T12:44:05;29.98;;;9.10;;
19623;SDS011;9959;49.798;9.928;2023-09-12T12:46:32;103.90;;;13.13;;
19623;SDS011;9959;49.798;9.928;2023-09-12T12:49:00;70.25;;;12.43;;
19623;SDS011;9959;49.798;9.928;2023-09-12T12:51:27;70.97;;;10.38;;
19623;SDS011;9959;49.798;9.928;2023-09-12T12:54:02;45.35;;;8.55;;
19623;SDS011;9959;49.798;9.928;2023-09-12T12:56:33;81.80;;;10.52;;
19623;SDS011;9959;49.798;9.928;2023-09-12T12:59:00;26.10;;;9.27;;
19623;SDS011;9959;49.798;9.928;2023-09-12T13:01:33;50.30;;;9.75;;
19623;SDS011;9959;49.798;9.928;2023-09-12T13:04:05;17.48;;;8.20;;
19623;SDS011;9959;49.798;9.928;2023-09-12T13:06:34;16.63;;;7.95;;
19623;SDS011;9959;49.798;9.928;2023-09-12T13:09:05;25.98;;;8.40;;
19623;SDS011;9959;49.798;9.928;2023-09-12T13:11:33;70.22;;;11.95;;
19623;SDS011;9959;49.798;9.928;2023-09-12T13:14:01;42.45;;;9.93;;
19623;SDS011;9959;49.798;9.928;2023-09-12T13:16:30;35.92;;;8.77;;
19623;SDS011;9959;49.798;9.928;2023-09-12T13:18:58;23.17;;;8.50;;
19623;SDS011;9959;49.798;9.928;2023-09-12T13:21:25;15.75;;;7.68;;
19623;SDS011;9959;49.798;9.928;2023-09-12T13:23:52;14.77;;;7.57;;
19623;SDS011;9959;49.798;9.928;2023-09-12T13:26:19;13.57;;;8.40;;
19623;SDS011;9959;49.798;9.928;2023-09-12T13:28:46;45.65;;;10.02;;
19623;SDS011;9959;49.798;9.928;2023-09-12T13:31:13;20.30;;;8.18;;
19623;SDS011;9959;49.798;9.928;2023-09-12T13:33:39;33.97;;;9.00;;
19623;SDS011;9959;49.798;9.928;2023-09-12T13:36:09;41.13;;;10.50;;
19623;SDS011;9959;49.798;9.928;2023-09-12T13:38:36;21.98;;;8.85;;
19623;SDS011;9959;49.798;9.928;2023-09-12T13:41:03;27.20;;;9.10;;
19623;SDS011;9959;49.798;9.928;2023-09-12T13:43:30;34.95;;;8.65;;
19623;SDS011;9959;49.798;9.928;2023-09-12T13:45:58;55.55;;;11.25;;
19623;SDS011;9959;49.798;9.928;2023-09-12T13:48:25;67.20;;;11.95;;
19623;SDS011;9959;49.798;9.928;2023-09-12T13:50:53;26.98;;;8.93;;
19623;SDS011;9959;49.798;9.928;2023-09-12T13:53:20;22.45;;;8.55;;
19623;SDS011;9959;49.798;9.928;2023-09-12T13:55:47;16.35;;;7.70;;
19623;SDS011;9959;49.798;9.928;2023-09-12T13:58:30;22.98;;;8.95;;
19623;SDS011;9959;49.798;9.928;2023-09-12T14:01:12;16.52;;;8.40;;
19623;SDS011;9959;49.798;9.928;2023-09-12T14:03:53;19.70;;;8.27;;
19623;SDS011;9959;49.798;9.928;2023-09-12T14:06:21;17.05;;;8.00;;
19623;SDS011;9959;49.798;9.928;2023-09-12T14:08:49;9.50;;;6.95;;
19623;SDS011;9959;49.798;9.928;2023-09-12T14:11:16;11.40;;;7.13;;
19623;SDS011;9959;49.798;9.928;2023-09-12T14:13:55;14.45;;;7.50;;
19623;SDS011;9959;49.798;9.928;2023-09-12T14:16:40;8.63;;;7.13;;
19623;SDS011;9959;49.798;9.928;2023-09-12T14:19:08;14.10;;;7.50;;
19623;SDS011;9959;49.798;9.928;2023-09-12T14:21:37;10.15;;;7.40;;
19623;SDS011;9959;49.798;9.928;2023-09-12T14:24:05;33.25;;;9.02;;
19623;SDS011;9959;49.798;9.928;2023-09-12T14:26:32;10.77;;;8.05;;
19623;SDS011;9959;49.798;9.928;2023-09-12T14:28:59;19.85;;;8.00;;
19623;SDS011;9959;49.798;9.928;2023-09-12T14:31:28;23.65;;;10.55;;
19623;SDS011;9959;49.798;9.928;2023-09-12T14:33:57;12.13;;;7.88;;
19623;SDS011;9959;49.798;9.928;2023-09-12T14:36:24;15.10;;;7.95;;
19623;SDS011;9959;49.798;9.928;2023-09-12T14:38:52;14.07;;;7.47;;
19623;SDS011;9959;49.798;9.928;2023-09-12T14:41:20;14.88;;;7.88;;
19623;SDS011;9959;49.798;9.928;2023-09-12T14:43:51;11.32;;;7.28;;
19623;SDS011;9959;49.798;9.928;2023-09-12T14:46:18;13.52;;;7.53;;
19623;SDS011;9959;49.798;9.928;2023-09-12T14:48:45;9.63;;;7.68;;
19623;SDS011;9959;49.798;9.928;2023-09-12T14:51:25;12.85;;;7.05;;
19623;SDS011;9959;49.798;9.928;2023-09-12T14:53:59;11.75;;;7.22;;
19623;SDS011;9959;49.798;9.928;2023-09-12T14:56:27;14.40;;;7.57;;
19623;SDS011;9959;49.798;9.928;2023-09-12T14:58:54;10.38;;;7.47;;
19623;SDS011;9959;49.798;9.928;2023-09-12T15:01:21;16.50;;;8.30;;
19623;SDS011;9959;49.798;9.928;2023-09-12T15:03:55;15.02;;;7.50;;
19623;SDS011;9959;49.798;9.928;2023-09-12T15:06:42;12.27;;;7.32;;
19623;SDS011;9959;49.798;9.928;2023-09-12T15:09:10;13.18;;;7.32;;
19623;SDS011;9959;49.798;9.928;2023-09-12T15:11:37;13.30;;;7.50;;
19623;SDS011;9959;49.798;9.928;2023-09-12T15:14:05;12.43;;;7.07;;
19623;SDS011;9959;49.798;9.928;2023-09-12T15:16:32;13.35;;;7.45;;
19623;SDS011;9959;49.798;9.928;2023-09-12T15:19:02;13.48;;;7.30;;
19623;SDS011;9959;49.798;9.928;2023-09-12T15:21:30;13.52;;;8.02;;